createdAt,value
2022-08-26T00:01:56.695Z,21.89
2022-08-26T00:04:25.887Z,22.20
2022-08-26T00:06:54.919Z,22.26
2022-08-26T00:09:25.015Z,21.61
2022-08-26T00:11:54.103Z,21.04
2022-08-26T00:14:21.796Z,20.93
2022-08-26T00:16:49.307Z,21.35
2022-08-26T00:19:21.344Z,21.58
2022-08-26T00:21:50.299Z,21.79
2022-08-26T00:24:21.006Z,22.32
2022-08-26T00:26:49.498Z,22.54
2022-08-26T00:29:17.001Z,22.28
2022-08-26T00:31:45.534Z,21.89
2022-08-26T00:34:15.256Z,21.94
2022-08-26T00:36:43.505Z,21.61
2022-08-26T00:39:11.356Z,21.04
2022-08-26T00:41:40.972Z,20.75
2022-08-26T00:44:11.104Z,20.91
2022-08-26T00:46:47.283Z,21.49
2022-08-26T00:49:31.237Z,21.43
2022-08-26T00:52:01.098Z,21.77
2022-08-26T00:54:33.327Z,21.77
2022-08-26T00:57:15.927Z,21.47
2022-08-26T00:59:52.913Z,21.72
2022-08-26T01:02:21.093Z,20.69
2022-08-26T01:04:59.010Z,20.48
2022-08-26T01:07:31.598Z,21.18
2022-08-26T01:10:02.086Z,21.23
2022-08-26T01:12:38.874Z,21.30
2022-08-26T01:15:13.777Z,21.06
2022-08-26T01:17:41.666Z,20.43
2022-08-26T01:20:42.561Z,20.15
2022-08-26T01:23:11.875Z,20.08
2022-08-26T01:25:49.422Z,20.55
2022-08-26T01:28:24.149Z,21.01
2022-08-26T01:30:53.507Z,20.94
2022-08-26T01:33:26.948Z,21.48
2022-08-26T01:35:54.442Z,20.90
2022-08-26T01:38:21.565Z,20.77
2022-08-26T01:40:51.490Z,19.91
2022-08-26T01:43:27.473Z,20.87
2022-08-26T01:45:57.017Z,20.56
2022-08-26T01:48:29.857Z,20.82
2022-08-26T01:50:58.353Z,21.08
2022-08-26T01:53:27.047Z,21.16
2022-08-26T01:55:59.541Z,20.76
2022-08-26T01:58:39.756Z,20.60
2022-08-26T02:01:07.685Z,20.55
2022-08-26T02:03:50.475Z,20.42
2022-08-26T02:06:19.857Z,20.47
2022-08-26T02:08:55.319Z,20.61
2022-08-26T02:11:22.958Z,20.85
2022-08-26T02:13:57.100Z,20.27
2022-08-26T02:16:28.797Z,20.79
2022-08-26T02:18:57.398Z,20.36
2022-08-26T02:21:24.904Z,20.51
2022-08-26T02:23:52.521Z,20.45
2022-08-26T02:26:26.997Z,20.18
2022-08-26T02:29:38.449Z,19.59
2022-08-26T02:32:09.108Z,20.64
2022-08-26T02:34:36.912Z,20.71
2022-08-26T02:37:10.530Z,20.54
2022-08-26T02:39:40.733Z,19.46
2022-08-26T02:42:08.357Z,19.19
2022-08-26T02:44:36.327Z,19.66
2022-08-26T02:47:03.815Z,20.65
2022-08-26T02:49:33.172Z,20.75
2022-08-26T02:52:01.934Z,20.85
2022-08-26T02:54:29.144Z,20.10
2022-08-26T02:56:56.420Z,20.16
2022-08-26T02:59:24.679Z,19.80
2022-08-26T03:01:52.969Z,19.59
2022-08-26T03:04:25.940Z,20.53
2022-08-26T03:06:55.395Z,20.85
2022-08-26T03:09:23.607Z,20.85
2022-08-26T03:11:52.462Z,20.57
2022-08-26T03:14:19.424Z,19.83
2022-08-26T03:16:48.494Z,20.06
2022-08-26T03:19:15.653Z,19.79
2022-08-26T03:21:45.090Z,19.72
2022-08-26T03:24:15.862Z,19.62
2022-08-26T03:26:52.420Z,19.97
2022-08-26T03:29:40.105Z,19.93
2022-08-26T03:32:08.181Z,20.02
2022-08-26T03:34:35.531Z,20.06
2022-08-26T03:37:03.210Z,20.01
2022-08-26T03:39:31.440Z,19.16
2022-08-26T03:41:58.989Z,19.45
2022-08-26T03:44:26.837Z,19.41
2022-08-26T03:46:54.561Z,19.18
2022-08-26T03:49:22.211Z,18.66
2022-08-26T03:51:49.547Z,18.96
2022-08-26T03:54:17.336Z,19.70
2022-08-26T03:56:46.440Z,19.33
2022-08-26T03:59:13.673Z,19.95
2022-08-26T04:01:41.209Z,19.92
2022-08-26T04:04:08.342Z,19.91
2022-08-26T04:06:39.617Z,19.58
2022-08-26T04:09:11.791Z,19.61
2022-08-26T04:11:40.046Z,19.10
2022-08-26T04:14:17.641Z,19.72
2022-08-26T04:16:48.417Z,19.53
2022-08-26T04:19:18.137Z,19.39
2022-08-26T04:21:47.290Z,18.96
2022-08-26T04:24:16.668Z,19.41
2022-08-26T04:26:45.496Z,19.35
2022-08-26T04:29:18.175Z,19.43
2022-08-26T04:31:47.018Z,19.04
2022-08-26T04:34:15.235Z,18.77
2022-08-26T04:36:43.805Z,19.06
2022-08-26T04:39:12.529Z,19.08
2022-08-26T04:41:40.114Z,19.46
2022-08-26T04:44:07.815Z,19.89
2022-08-26T04:46:35.981Z,18.93
2022-08-26T04:49:09.384Z,19.17
2022-08-26T04:51:37.333Z,19.16
2022-08-26T04:54:07.064Z,19.38
2022-08-26T04:56:41.381Z,19.21
2022-08-26T04:59:16.819Z,18.14
2022-08-26T05:01:48.665Z,19.01
2022-08-26T05:04:19.197Z,19.06
2022-08-26T05:06:48.427Z,18.87
2022-08-26T05:09:20.779Z,19.84
2022-08-26T05:11:52.081Z,21.41
2022-08-26T05:14:22.395Z,21.67
2022-08-26T05:16:49.584Z,20.80
2022-08-26T05:19:19.242Z,21.43
2022-08-26T05:21:48.305Z,21.12
2022-08-26T05:24:17.096Z,21.21
2022-08-26T05:26:45.122Z,20.24
2022-08-26T05:29:13.934Z,20.74
2022-08-26T05:31:40.988Z,21.61
2022-08-26T05:34:08.961Z,22.59
2022-08-26T05:36:37.011Z,21.86
2022-08-26T05:39:06.698Z,21.47
2022-08-26T05:41:38.639Z,21.94
2022-08-26T05:44:09.815Z,22.31
2022-08-26T05:46:38.635Z,23.15
2022-08-26T05:49:12.864Z,26.66
2022-08-26T05:51:46.218Z,27.79
2022-08-26T05:54:21.780Z,28.03
2022-08-26T05:56:52.861Z,28.10
2022-08-26T05:59:21.362Z,28.41
2022-08-26T06:01:51.892Z,27.18
2022-08-26T06:04:19.072Z,25.43
2022-08-26T06:06:47.537Z,25.48
2022-08-26T06:09:14.811Z,26.14
2022-08-26T06:11:45.597Z,25.94
2022-08-26T06:14:12.750Z,25.84
2022-08-26T06:16:45.249Z,25.29
2022-08-26T06:19:15.548Z,25.46
2022-08-26T06:21:47.201Z,25.78
2022-08-26T06:24:36.797Z,26.00
2022-08-26T06:27:09.660Z,25.88
2022-08-26T06:29:38.894Z,26.30
2022-08-26T06:32:06.954Z,26.24
2022-08-26T06:34:35.910Z,26.48
2022-08-26T06:37:03.788Z,26.10
2022-08-26T06:39:32.010Z,26.48
2022-08-26T06:42:00.639Z,26.44
2022-08-26T06:44:28.290Z,26.68
2022-08-26T06:46:55.309Z,26.21
2022-08-26T06:49:27.408Z,25.46
2022-08-26T06:51:59.552Z,25.70
2022-08-26T06:54:30.470Z,25.24
2022-08-26T06:56:58.577Z,25.93
2022-08-26T06:59:26.366Z,26.04
2022-08-26T07:01:54.959Z,25.95
2022-08-26T07:04:23.174Z,26.27
2022-08-26T07:06:53.626Z,26.17
2022-08-26T07:09:30.422Z,26.29
2022-08-26T07:11:58.033Z,26.33
2022-08-26T07:14:26.155Z,26.46
2022-08-26T07:16:54.165Z,26.80
2022-08-26T07:19:30.919Z,26.62
2022-08-26T07:22:05.536Z,26.65
2022-08-26T07:24:37.606Z,26.64
2022-08-26T07:27:08.805Z,26.17
2022-08-26T07:29:39.211Z,26.19
2022-08-26T07:32:07.945Z,25.88
2022-08-26T07:34:35.282Z,26.15
2022-08-26T07:37:03.855Z,25.89
2022-08-26T07:39:31.917Z,25.76
2022-08-26T07:42:07.417Z,25.86
2022-08-26T07:44:37.607Z,25.98
2022-08-26T07:47:10.558Z,26.00
2022-08-26T07:49:54.249Z,25.90
2022-08-26T07:52:26.195Z,25.82
2022-08-26T07:54:54.727Z,25.84
2022-08-26T07:57:21.846Z,25.73
2022-08-26T07:59:51.965Z,26.05
2022-08-26T08:02:21.662Z,26.45
2022-08-26T08:04:48.833Z,26.34
2022-08-26T08:07:16.035Z,26.15
2022-08-26T08:09:43.695Z,26.04
2022-08-26T08:12:14.126Z,26.04
2022-08-26T08:14:45.185Z,25.67
2022-08-26T08:17:15.878Z,25.92
2022-08-26T08:19:43.450Z,26.37
2022-08-26T08:22:17.153Z,26.31
2022-08-26T08:24:44.806Z,26.45
2022-08-26T08:27:11.885Z,27.02
2022-08-26T08:29:39.032Z,26.51
2022-08-26T08:32:06.352Z,26.69
2022-08-26T08:37:10.740Z,27.29
2022-08-26T08:39:37.886Z,27.31
2022-08-26T08:42:38.982Z,27.44
2022-08-26T08:45:37.162Z,27.35
2022-08-26T08:48:31.741Z,27.79
2022-08-26T08:51:36.291Z,27.49
2022-08-26T08:54:04.652Z,27.82
2022-08-26T08:56:55.620Z,28.42
2022-08-26T08:59:32.555Z,27.92
2022-08-26T09:02:30.568Z,27.65
2022-08-26T09:05:05.168Z,27.60
2022-08-26T09:07:50.631Z,27.90
2022-08-26T09:10:40.363Z,27.73
2022-08-26T09:13:16.333Z,27.70
2022-08-26T09:16:32.142Z,28.02
2022-08-26T09:19:33.300Z,28.80
2022-08-26T09:22:04.664Z,28.49
2022-08-26T09:24:42.083Z,28.18
2022-08-26T09:27:38.886Z,28.85
2022-08-26T09:30:06.937Z,28.95
2022-08-26T09:32:35.146Z,28.25
2022-08-26T09:35:33.207Z,28.38
2022-08-26T09:38:00.830Z,28.67
2022-08-26T09:40:36.316Z,28.98
2022-08-26T09:43:23.111Z,29.14
2022-08-26T09:46:10.758Z,29.35
2022-08-26T09:48:41.171Z,29.58
2022-08-26T09:51:24.055Z,29.42
2022-08-26T09:53:55.001Z,29.00
2022-08-26T09:56:27.831Z,28.92
2022-08-26T09:58:56.925Z,29.26
2022-08-26T10:01:23.816Z,28.99
2022-08-26T10:03:52.088Z,28.88
2022-08-26T10:06:21.554Z,28.99
2022-08-26T10:09:00.065Z,29.13
2022-08-26T10:11:51.686Z,29.23
2022-08-26T10:14:34.425Z,28.83
2022-08-26T10:17:26.593Z,29.30
2022-08-26T10:20:24.103Z,29.34
2022-08-26T10:23:16.497Z,29.73
2022-08-26T10:25:53.562Z,29.81
2022-08-26T10:29:01.389Z,30.05
2022-08-26T10:32:21.130Z,30.00
2022-08-26T10:34:48.233Z,29.72
2022-08-26T10:37:21.556Z,29.89
2022-08-26T10:40:36.755Z,30.06
2022-08-26T10:43:20.881Z,29.29
2022-08-26T10:45:59.128Z,29.69
2022-08-26T10:49:06.516Z,30.55
2022-08-26T10:51:42.305Z,30.75
2022-08-26T10:54:40.137Z,30.13
2022-08-26T10:57:35.264Z,30.14
2022-08-26T11:00:44.038Z,30.82
2022-08-26T11:03:40.173Z,30.53
2022-08-26T11:06:19.235Z,31.65
2022-08-26T11:08:52.971Z,31.20
2022-08-26T11:11:50.035Z,30.91
2022-08-26T11:14:29.190Z,31.44
2022-08-26T11:16:58.888Z,31.22
2022-08-26T11:20:01.416Z,31.98
2022-08-26T11:22:32.095Z,31.46
2022-08-26T11:24:58.936Z,31.97
2022-08-26T11:27:26.257Z,31.91
2022-08-26T11:30:07.852Z,32.26
2022-08-26T11:32:34.640Z,31.93
2022-08-26T11:35:06.702Z,31.84
2022-08-26T11:37:59.041Z,32.01
2022-08-26T11:40:33.055Z,32.01
2022-08-26T11:43:23.764Z,31.76
2022-08-26T11:46:07.798Z,32.18
2022-08-26T11:48:44.304Z,32.36
2022-08-26T11:51:22.000Z,32.65
2022-08-26T11:53:49.241Z,32.31
2022-08-26T11:56:33.291Z,32.79
2022-08-26T11:59:07.449Z,33.28
2022-08-26T12:01:40.180Z,33.06
2022-08-26T12:04:12.591Z,32.82
2022-08-26T12:06:51.616Z,33.14
2022-08-26T12:09:31.157Z,32.54
2022-08-26T12:12:22.521Z,33.03
2022-08-26T12:15:03.872Z,33.15
2022-08-26T12:17:31.835Z,33.20
2022-08-26T12:19:58.758Z,33.39
2022-08-26T12:22:35.929Z,33.35
2022-08-26T12:25:08.745Z,33.93
2022-08-26T12:27:45.428Z,33.62
2022-08-26T12:30:26.283Z,33.62
2022-08-26T12:33:19.942Z,33.34
2022-08-26T12:35:54.747Z,33.09
2022-08-26T12:38:26.070Z,33.66
2022-08-26T12:40:53.622Z,33.87
2022-08-26T12:43:45.644Z,34.16
2022-08-26T12:46:27.178Z,34.50
2022-08-26T12:48:54.996Z,33.84
2022-08-26T12:51:30.697Z,33.50
2022-08-26T12:53:58.979Z,33.93
2022-08-26T12:56:32.549Z,34.49
2022-08-26T12:59:25.263Z,34.69
2022-08-26T13:01:54.379Z,34.25
2022-08-26T13:04:41.089Z,34.85
2022-08-26T13:07:26.266Z,34.01
2022-08-26T13:09:58.917Z,33.88
2022-08-26T13:12:37.284Z,33.25
2022-08-26T13:15:06.336Z,33.84
2022-08-26T13:17:35.984Z,34.27
2022-08-26T13:20:04.464Z,32.92
2022-08-26T13:22:31.990Z,33.49
2022-08-26T13:24:59.080Z,32.62
2022-08-26T13:27:27.552Z,33.00
2022-08-26T13:29:57.063Z,32.89
2022-08-26T13:32:27.217Z,33.19
2022-08-26T13:34:56.526Z,33.35
2022-08-26T13:37:34.522Z,33.16
2022-08-26T13:40:05.000Z,32.71
2022-08-26T13:42:32.065Z,33.20
2022-08-26T13:44:59.723Z,33.01
2022-08-26T13:47:27.200Z,33.22
2022-08-26T13:49:56.360Z,32.72
2022-08-26T13:52:30.180Z,32.90
2022-08-26T13:55:00.352Z,32.33
2022-08-26T13:57:30.001Z,32.31
2022-08-26T13:59:58.982Z,31.95
2022-08-26T14:02:27.880Z,31.65
2022-08-26T14:04:56.133Z,31.72
2022-08-26T14:07:23.379Z,32.23
2022-08-26T14:09:50.380Z,30.85
2022-08-26T14:12:18.211Z,30.59
2022-08-26T14:14:45.233Z,30.50
2022-08-26T14:17:21.219Z,30.64
2022-08-26T14:19:50.463Z,30.47
2022-08-26T14:22:21.934Z,30.33
2022-08-26T14:24:50.446Z,30.53
2022-08-26T14:27:17.451Z,30.64
2022-08-26T14:29:44.446Z,30.08
2022-08-26T14:32:25.762Z,30.03
2022-08-26T14:34:54.416Z,30.12
2022-08-26T14:37:22.415Z,30.27
2022-08-26T14:39:49.499Z,30.01
2022-08-26T14:42:22.788Z,30.90
2022-08-26T14:44:56.008Z,30.27
2022-08-26T14:47:23.246Z,30.34
2022-08-26T14:49:50.562Z,29.98
2022-08-26T14:52:18.076Z,30.55
2022-08-26T14:54:45.258Z,30.29
2022-08-26T14:57:14.592Z,30.89
2022-08-26T14:59:50.014Z,31.05
2022-08-26T15:02:32.676Z,30.71
2022-08-26T15:05:02.388Z,31.23
2022-08-26T15:07:29.304Z,31.36
2022-08-26T15:09:56.481Z,31.29
2022-08-26T15:12:23.548Z,31.86
2022-08-26T15:14:50.947Z,31.88
2022-08-26T15:17:18.000Z,32.05
2022-08-26T15:19:44.930Z,31.44
2022-08-26T15:22:11.998Z,31.87
2022-08-26T15:24:38.989Z,31.58
2022-08-26T15:27:06.005Z,31.77
2022-08-26T15:29:36.413Z,31.78
2022-08-26T15:32:04.813Z,31.20
2022-08-26T15:34:32.012Z,31.07
2022-08-26T15:36:59.019Z,30.80
2022-08-26T15:39:26.121Z,30.46
2022-08-26T15:41:53.090Z,30.45
2022-08-26T15:44:20.051Z,30.48
2022-08-26T15:46:49.777Z,30.30
2022-08-26T15:49:18.442Z,30.63
2022-08-26T15:51:48.166Z,30.13
2022-08-26T15:54:17.601Z,30.58
2022-08-26T15:56:45.637Z,30.67
2022-08-26T15:59:17.049Z,30.96
2022-08-26T16:01:44.588Z,30.56
2022-08-26T16:04:11.932Z,30.13
2022-08-26T16:06:41.109Z,30.37
2022-08-26T16:09:08.978Z,30.29
2022-08-26T16:11:37.278Z,30.30
2022-08-26T16:14:06.261Z,29.84
2022-08-26T16:16:33.418Z,29.99
2022-08-26T16:19:06.834Z,29.77
2022-08-26T16:21:34.945Z,29.98
2022-08-26T16:24:02.058Z,29.62
2022-08-26T16:26:34.122Z,29.36
2022-08-26T16:29:04.901Z,29.69
2022-08-26T16:31:32.370Z,29.96
2022-08-26T16:33:59.359Z,29.99
2022-08-26T16:36:26.754Z,30.25
2022-08-26T16:38:56.129Z,30.25
2022-08-26T16:41:25.090Z,30.33
2022-08-26T16:43:53.226Z,29.88
2022-08-26T16:46:23.443Z,30.00
2022-08-26T16:48:52.492Z,29.53
2022-08-26T16:51:26.865Z,29.16
2022-08-26T16:53:55.837Z,29.44
2022-08-26T16:56:34.070Z,29.56
2022-08-26T16:59:04.629Z,27.90
2022-08-26T17:01:31.973Z,27.16
2022-08-26T17:03:59.108Z,26.45
2022-08-26T17:06:26.151Z,26.12
2022-08-26T17:08:53.240Z,25.73
2022-08-26T17:11:20.169Z,25.50
2022-08-26T17:13:47.595Z,25.27
2022-08-26T17:16:15.659Z,25.46
2022-08-26T17:18:42.738Z,25.16
2022-08-26T17:21:12.636Z,25.19
2022-08-26T17:23:41.773Z,25.37
2022-08-26T17:26:11.890Z,25.58
2022-08-26T17:28:39.778Z,25.35
2022-08-26T17:31:08.340Z,24.98
2022-08-26T17:33:35.870Z,25.19
2022-08-26T17:36:07.572Z,25.05
2022-08-26T17:38:36.288Z,25.21
2022-08-26T17:41:07.339Z,25.24
2022-08-26T17:43:34.914Z,24.35
2022-08-26T17:46:06.843Z,24.11
2022-08-26T17:48:37.169Z,23.99
2022-08-26T17:51:14.287Z,23.82
2022-08-26T17:53:42.297Z,24.05
2022-08-26T17:56:12.440Z,24.49
2022-08-26T17:58:40.400Z,23.80
2022-08-26T18:01:07.846Z,23.15
2022-08-26T18:03:35.446Z,23.08
2022-08-26T18:06:07.787Z,22.96
2022-08-26T18:08:34.831Z,23.29
2022-08-26T18:11:02.113Z,23.38
2022-08-26T18:13:29.395Z,23.96
2022-08-26T18:15:56.429Z,24.71
2022-08-26T18:18:23.412Z,24.59
2022-08-26T18:20:51.889Z,24.86
2022-08-26T18:23:24.743Z,24.35
2022-08-26T18:25:53.880Z,23.91
2022-08-26T18:28:21.401Z,24.10
2022-08-26T18:30:48.570Z,24.10
2022-08-26T18:33:15.762Z,24.06
2022-08-26T18:35:44.354Z,23.79
2022-08-26T18:38:13.964Z,23.27
2022-08-26T18:40:45.258Z,23.02
2022-08-26T18:43:12.378Z,22.77
2022-08-26T18:45:39.492Z,22.44
2022-08-26T18:48:06.730Z,22.95
2022-08-26T18:50:37.219Z,22.53
2022-08-26T18:53:04.215Z,22.47
2022-08-26T18:55:31.491Z,22.70
2022-08-26T18:57:58.640Z,22.62
2022-08-26T19:00:25.670Z,23.13
2022-08-26T19:02:55.875Z,23.37
2022-08-26T19:05:23.356Z,22.65
2022-08-26T19:07:51.473Z,22.70
2022-08-26T19:10:18.449Z,23.39
2022-08-26T19:12:45.541Z,23.62
2022-08-26T19:15:19.006Z,23.65
2022-08-26T19:17:46.143Z,23.62
2022-08-26T19:20:13.528Z,23.36
2022-08-26T19:22:41.434Z,23.61
2022-08-26T19:25:09.254Z,23.69
2022-08-26T19:27:36.212Z,23.77
2022-08-26T19:30:05.861Z,23.78
2022-08-26T19:32:34.020Z,23.92
2022-08-26T19:35:00.985Z,23.27
2022-08-26T19:37:27.921Z,22.68
2022-08-26T19:39:56.411Z,22.68
2022-08-26T19:42:23.344Z,22.34
2022-08-26T19:45:24.535Z,22.54
2022-08-26T19:47:52.944Z,22.86
2022-08-26T19:50:20.250Z,22.65
2022-08-26T19:52:47.748Z,22.48
2022-08-26T19:55:21.160Z,22.69
2022-08-26T19:57:50.195Z,22.91
2022-08-26T20:00:23.749Z,22.30
2022-08-26T20:02:52.269Z,22.69
2022-08-26T20:05:22.279Z,22.37
2022-08-26T20:07:49.706Z,22.58
2022-08-26T20:10:21.634Z,22.76
2022-08-26T20:12:52.216Z,22.51
2022-08-26T20:15:21.796Z,22.38
2022-08-26T20:17:49.440Z,22.37
2022-08-26T20:20:46.265Z,22.77
2022-08-26T20:23:13.437Z,22.36
2022-08-26T20:25:42.913Z,22.05
2022-08-26T20:28:09.904Z,21.66
2022-08-26T20:30:37.126Z,22.11
2022-08-26T20:33:04.368Z,21.67
2022-08-26T20:35:31.353Z,22.32
2022-08-26T20:37:59.233Z,21.70
2022-08-26T20:40:26.298Z,21.75
2022-08-26T20:42:53.231Z,21.21
2022-08-26T20:45:20.218Z,21.67
2022-08-26T20:47:47.305Z,20.89
2022-08-26T20:50:14.581Z,21.08
2022-08-26T20:52:41.578Z,21.48
2022-08-26T20:55:09.662Z,21.94
2022-08-26T20:57:37.272Z,22.09
2022-08-26T21:00:06.643Z,22.10
2022-08-26T21:02:35.021Z,20.96
2022-08-26T21:05:02.260Z,21.85
2022-08-26T21:07:30.085Z,21.30
2022-08-26T21:09:57.833Z,21.12
2022-08-26T21:12:26.679Z,22.42
2022-08-26T21:14:53.722Z,22.12
2022-08-26T21:17:20.720Z,22.43
2022-08-26T21:19:48.185Z,22.12
2022-08-26T21:22:15.726Z,22.23
2022-08-26T21:24:42.854Z,21.92
2022-08-26T21:27:09.945Z,21.70
2022-08-26T21:29:37.281Z,21.73
2022-08-26T21:32:05.182Z,21.44
2022-08-26T21:34:32.626Z,21.15
2022-08-26T21:36:59.661Z,21.25
2022-08-26T21:39:26.794Z,21.38
2022-08-26T21:41:53.967Z,21.59
2022-08-26T21:44:21.498Z,22.07
2022-08-26T21:46:48.996Z,22.10
2022-08-26T21:49:16.845Z,22.03
2022-08-26T21:51:47.511Z,22.21
2022-08-26T21:54:15.808Z,22.32
2022-08-26T21:56:46.981Z,22.42
2022-08-26T21:59:17.593Z,22.30
2022-08-26T22:01:44.736Z,22.32
2022-08-26T22:04:12.113Z,21.89
2022-08-26T22:06:46.644Z,22.26
2022-08-26T22:09:17.822Z,22.18
2022-08-26T22:11:46.386Z,22.81
2022-08-26T22:14:15.201Z,21.55
2022-08-26T22:16:42.231Z,21.63
2022-08-26T22:19:17.929Z,21.90
2022-08-26T22:21:45.260Z,22.19
2022-08-26T22:24:12.510Z,21.94
2022-08-26T22:26:39.714Z,22.24
2022-08-26T22:29:07.706Z,22.84
2022-08-26T22:31:37.497Z,22.38
2022-08-26T22:34:09.735Z,22.07
2022-08-26T22:36:43.953Z,21.75
2022-08-26T22:39:14.656Z,22.13
2022-08-26T22:41:43.663Z,22.45
2022-08-26T22:44:11.711Z,22.55
2022-08-26T22:46:40.183Z,22.53
2022-08-26T22:49:10.498Z,22.78
2022-08-26T22:51:37.747Z,22.99
2022-08-26T22:54:06.412Z,22.65
2022-08-26T22:56:33.706Z,22.60
2022-08-26T22:59:00.924Z,22.22
2022-08-26T23:01:28.057Z,22.29
2022-08-26T23:03:55.121Z,22.03
2022-08-26T23:06:22.111Z,22.45
2022-08-26T23:08:49.374Z,22.21
2022-08-26T23:11:16.519Z,22.42
2022-08-26T23:13:43.619Z,22.76
2022-08-26T23:16:12.501Z,23.04
2022-08-26T23:18:41.488Z,23.41
2022-08-26T23:21:09.243Z,23.23
2022-08-26T23:23:36.605Z,23.30
2022-08-26T23:26:07.042Z,23.35
2022-08-26T23:28:37.219Z,22.69
2022-08-26T23:31:05.681Z,22.75
2022-08-26T23:33:51.313Z,22.87
2022-08-26T23:36:22.532Z,22.70
2022-08-26T23:38:52.468Z,22.53
2022-08-26T23:41:24.114Z,22.67
2022-08-26T23:43:51.806Z,22.54
2022-08-26T23:46:19.854Z,22.75
2022-08-26T23:48:47.499Z,22.27
2022-08-26T23:51:33.265Z,22.48
2022-08-26T23:54:00.378Z,22.79
2022-08-26T23:56:27.562Z,22.62
2022-08-26T23:58:56.513Z,22.49
